Time;durP1;ratioP1;P1;durP2;ratioP2;P2;SDS_P1;SDS_P2;PMS_P1;PMS_P2;Temp;Humidity;BMP_temperature;BMP_pressure;BME280_temperature;BME280_humidity;BME280_pressure;Samples;Min_cycle;Max_cycle;Signal;HPM_P1;HPM_P2
2021/10/31 00:02:10;;;;;;;32.90;20.73;;;11.10;99.90;;;;;;5002020;28;20125;-65
2021/10/31 00:04:36;;;;;;;41.88;22.63;;;11.10;99.90;;;;;;5014298;28;20125;-65
2021/10/31 00:07:02;;;;;;;38.92;23.77;;;11.00;99.90;;;;;;5022700;28;20037;-65
2021/10/31 00:09:29;;;;;;;34.53;23.30;;;11.00;99.90;;;;;;5013052;28;20037;-65
2021/10/31 00:11:55;;;;;;;38.80;23.45;;;11.00;99.90;;;;;;5017459;28;20038;-65
2021/10/31 00:14:21;;;;;;;39.55;25.00;;;10.90;99.90;;;;;;5014703;28;20088;-65
2021/10/31 00:16:47;;;;;;;43.15;23.67;;;10.90;99.90;;;;;;5027470;28;20135;-65
2021/10/31 00:19:13;;;;;;;36.97;22.70;;;10.80;99.90;;;;;;5021023;28;20125;-65
2021/10/31 00:21:39;;;;;;;51.17;23.00;;;10.80;99.90;;;;;;5020327;28;20045;-65
2021/10/31 00:24:05;;;;;;;50.35;24.95;;;10.80;99.90;;;;;;5024015;28;20731;-65
2021/10/31 00:26:31;;;;;;;50.08;25.67;;;10.70;99.90;;;;;;5018053;28;20073;-65
2021/10/31 00:28:56;;;;;;;42.60;23.65;;;10.70;99.90;;;;;;5022438;28;23061;-65
2021/10/31 00:31:22;;;;;;;40.60;23.45;;;10.70;99.90;;;;;;5023302;28;20073;-65
2021/10/31 00:33:48;;;;;;;45.55;25.58;;;10.60;99.90;;;;;;5023672;28;20092;-65
2021/10/31 00:36:13;;;;;;;42.63;25.15;;;10.60;99.90;;;;;;5002032;28;20541;-65
2021/10/31 00:38:39;;;;;;;44.70;26.73;;;10.60;99.90;;;;;;5021778;28;20395;-65
2021/10/31 00:41:05;;;;;;;44.95;25.88;;;10.60;99.90;;;;;;5019239;28;20059;-65
2021/10/31 00:43:30;;;;;;;46.40;26.25;;;10.60;99.90;;;;;;4999827;28;20069;-65
2021/10/31 00:45:56;;;;;;;50.30;27.55;;;10.60;99.90;;;;;;5013652;28;20040;-65
2021/10/31 00:48:22;;;;;;;46.95;27.05;;;10.60;99.90;;;;;;5020594;28;20036;-65
2021/10/31 00:50:51;;;;;;;48.40;26.25;;;10.60;99.90;;;;;;5011156;28;20373;-65
2021/10/31 00:53:17;;;;;;;63.25;28.15;;;10.60;99.90;;;;;;5021773;28;20045;-65
2021/10/31 00:55:43;;;;;;;56.47;29.42;;;10.60;99.90;;;;;;5002817;28;20764;-65
2021/10/31 00:58:12;;;;;;;59.75;27.27;;;10.50;99.90;;;;;;5018746;28;20068;-65
2021/10/31 01:00:39;;;;;;;54.22;28.08;;;10.50;99.90;;;;;;5019466;28;20479;-65
2021/10/31 01:03:05;;;;;;;43.45;26.77;;;10.40;99.90;;;;;;4997132;28;20111;-65
2021/10/31 01:05:41;;;;;;;45.72;26.33;;;10.40;99.90;;;;;;5004629;28;20053;-65
2021/10/31 01:08:36;;;;;;;52.28;27.60;;;10.30;99.90;;;;;;4998052;28;20756;-65
2021/10/31 01:11:02;;;;;;;;;;;10.20;99.90;;;;;;4990536;28;20057;-65
2021/10/31 01:14:23;;;;;;;46.85;25.30;;;10.20;99.90;;;;;;5022369;28;20391;-65
2021/10/31 01:17:26;;;;;;;68.95;28.80;;;10.20;99.90;;;;;;4924237;29;20073;-65
2021/10/31 01:20:14;;;;;;;60.53;27.70;;;10.10;99.90;;;;;;4999896;28;20087;-65
2021/10/31 01:22:43;;;;;;;45.47;23.88;;;10.10;99.90;;;;;;5017388;28;20496;-65
2021/10/31 01:25:47;;;;;;;119.88;35.15;;;10.10;99.90;;;;;;5027623;28;20529;-65
2021/10/31 01:28:48;;;;;;;53.83;29.38;;;10.00;99.90;;;;;;5020563;28;20042;-65
2021/10/31 01:31:27;;;;;;;65.95;30.98;;;10.00;99.90;;;;;;4958852;28;20128;-65
2021/10/31 01:34:18;;;;;;;54.42;27.73;;;9.90;99.90;;;;;;5021091;28;20057;-65
2021/10/31 01:37:05;;;;;;;71.45;28.92;;;9.90;99.90;;;;;;5024961;28;20045;-65
2021/10/31 01:40:05;;;;;;;52.00;26.00;;;9.90;99.90;;;;;;5020734;28;20039;-65
2021/10/31 01:42:49;;;;;;;76.22;31.02;;;9.80;99.90;;;;;;5016183;28;20060;-65
2021/10/31 01:45:30;;;;;;;106.68;34.20;;;9.80;99.90;;;;;;5024017;28;20084;-65
2021/10/31 01:48:28;;;;;;;61.47;29.48;;;9.80;99.90;;;;;;5023298;28;20041;-65
2021/10/31 01:50:58;;;;;;;86.53;33.30;;;9.70;99.90;;;;;;4993902;28;20158;-65
2021/10/31 01:53:36;;;;;;;49.53;27.48;;;9.70;99.90;;;;;;5017900;28;20049;-65
2021/10/31 01:56:09;;;;;;;50.47;27.23;;;9.60;99.90;;;;;;5008206;28;20037;-65
2021/10/31 01:58:38;;;;;;;49.05;26.58;;;9.60;99.90;;;;;;5021915;28;22000;-65
2021/10/31 02:01:06;;;;;;;81.22;31.33;;;9.60;99.90;;;;;;5022308;28;20071;-65
2021/10/31 02:03:36;;;;;;;56.35;28.02;;;9.60;99.90;;;;;;5017602;28;20041;-65
2021/10/31 02:06:03;;;;;;;63.83;31.60;;;9.50;99.90;;;;;;5025203;28;20077;-66
2021/10/31 02:08:33;;;;;;;49.70;27.17;;;9.50;99.90;;;;;;5022114;28;20073;-65
2021/10/31 02:11:00;;;;;;;59.42;29.95;;;9.40;99.90;;;;;;5001052;28;20487;-66
2021/10/31 02:13:28;;;;;;;59.75;30.73;;;9.30;99.90;;;;;;5024619;28;20070;-65
2021/10/31 02:15:55;;;;;;;65.85;33.60;;;9.40;99.90;;;;;;5004734;28;20112;-65
2021/10/31 02:18:23;;;;;;;72.15;32.85;;;9.30;99.90;;;;;;5024276;28;20029;-65
2021/10/31 02:20:54;;;;;;;73.32;33.85;;;9.30;99.90;;;;;;5017231;28;20041;-65
2021/10/31 02:23:20;;;;;;;74.03;35.80;;;9.30;99.90;;;;;;5011456;28;20037;-65
2021/10/31 02:25:47;;;;;;;76.18;34.53;;;9.30;99.90;;;;;;5022934;28;20487;-65
2021/10/31 02:28:12;;;;;;;99.78;38.85;;;9.30;99.90;;;;;;5022366;28;20664;-66
2021/10/31 02:30:38;;;;;;;73.15;36.45;;;9.20;99.90;;;;;;5015702;28;20087;-65
2021/10/31 02:33:04;;;;;;;69.90;36.03;;;9.30;99.90;;;;;;5026684;28;20046;-64
2021/10/31 02:35:29;;;;;;;134.52;43.67;;;9.30;99.90;;;;;;5020994;28;20551;-66
2021/10/31 02:37:55;;;;;;;69.53;34.53;;;9.30;99.90;;;;;;5026993;28;20037;-65
2021/10/31 02:40:22;;;;;;;100.65;39.92;;;9.20;99.90;;;;;;5022375;28;20579;-65
2021/10/31 02:42:49;;;;;;;110.57;43.72;;;9.20;99.90;;;;;;5023878;28;20041;-65
2021/10/31 02:45:15;;;;;;;67.22;32.15;;;9.20;99.90;;;;;;5020076;28;20072;-66
2021/10/31 02:47:53;;;;;;;97.82;39.05;;;9.20;99.90;;;;;;5024525;28;20077;-65
2021/10/31 02:50:22;;;;;;;66.43;33.42;;;9.10;99.90;;;;;;5024326;28;20497;-65
2021/10/31 02:53:06;;;;;;;122.00;41.97;;;9.10;99.90;;;;;;5026170;28;20103;-65
2021/10/31 02:56:12;;;;;;;78.20;35.65;;;9.10;99.90;;;;;;4984428;28;20045;-65
2021/10/31 02:58:46;;;;;;;101.03;38.20;;;9.00;99.90;;;;;;5023933;28;20472;-65
2021/10/31 03:01:13;;;;;;;158.77;43.80;;;9.00;99.90;;;;;;5019320;28;20037;-65
2021/10/31 03:03:40;;;;;;;115.93;39.72;;;9.00;99.90;;;;;;5019210;28;20116;-65
2021/10/31 03:06:05;;;;;;;64.25;32.30;;;8.90;99.90;;;;;;5001388;28;20447;-65
2021/10/31 03:08:33;;;;;;;65.45;32.63;;;9.00;99.90;;;;;;5026948;28;20108;-65
2021/10/31 03:11:01;;;;;;;91.75;37.35;;;8.90;99.90;;;;;;5008270;28;20049;-65
2021/10/31 03:13:28;;;;;;;102.03;39.25;;;8.90;99.90;;;;;;5018628;28;20049;-65
2021/10/31 03:15:54;;;;;;;84.63;39.72;;;8.90;99.90;;;;;;5022915;28;20132;-65
2021/10/31 03:18:20;;;;;;;90.78;40.85;;;9.00;99.90;;;;;;5016496;28;20037;-65
2021/10/31 03:20:46;;;;;;;145.40;46.08;;;9.00;99.90;;;;;;5025269;28;20195;-65
2021/10/31 03:23:12;;;;;;;117.95;42.90;;;9.00;99.90;;;;;;5020891;28;20080;-65
2021/10/31 03:25:38;;;;;;;94.38;39.88;;;9.10;99.90;;;;;;5022162;28;20047;-65
2021/10/31 03:28:04;;;;;;;93.63;39.33;;;9.10;99.90;;;;;;5017124;28;20448;-65
2021/10/31 03:30:30;;;;;;;79.15;36.25;;;9.10;99.90;;;;;;5024013;28;20064;-65
2021/10/31 03:32:57;;;;;;;167.55;48.33;;;9.10;99.90;;;;;;5019625;28;20124;-65
2021/10/31 03:35:23;;;;;;;110.15;43.38;;;9.00;99.90;;;;;;5005949;28;20046;-65
2021/10/31 03:37:50;;;;;;;182.60;48.20;;;9.00;99.90;;;;;;5019150;28;20477;-65
2021/10/31 03:40:16;;;;;;;107.82;42.60;;;9.10;99.90;;;;;;5022819;28;20407;-65
2021/10/31 03:42:42;;;;;;;147.88;46.72;;;9.00;99.90;;;;;;5013565;28;20082;-65
2021/10/31 03:45:10;;;;;;;138.60;46.60;;;9.10;99.90;;;;;;5025927;28;20107;-65
2021/10/31 03:47:40;;;;;;;173.73;49.70;;;9.10;99.90;;;;;;5021828;28;20049;-65
2021/10/31 03:50:07;;;;;;;113.30;47.70;;;9.20;99.90;;;;;;5018298;28;20045;-65
2021/10/31 03:52:32;;;;;;;188.68;55.05;;;9.20;99.90;;;;;;5021392;28;20050;-64
2021/10/31 03:54:58;;;;;;;129.75;48.38;;;9.30;99.90;;;;;;5018414;28;20071;-64
2021/10/31 03:57:24;;;;;;;111.05;46.67;;;9.30;99.90;;;;;;5025508;28;20051;-64
2021/10/31 03:59:49;;;;;;;111.32;44.15;;;9.30;99.90;;;;;;5015571;28;20031;-64
2021/10/31 04:02:15;;;;;;;168.43;53.95;;;9.40;99.90;;;;;;5024577;28;20041;-63
2021/10/31 04:04:41;;;;;;;136.02;49.50;;;9.40;99.90;;;;;;5005040;28;20090;-65
2021/10/31 04:07:07;;;;;;;136.20;49.05;;;9.40;99.90;;;;;;5005398;28;20387;-65
2021/10/31 04:09:33;;;;;;;183.35;55.05;;;9.40;99.90;;;;;;5000609;28;20041;-65
2021/10/31 04:11:59;;;;;;;125.47;47.40;;;9.40;99.90;;;;;;5023696;28;20042;-65
2021/10/31 04:14:25;;;;;;;142.35;51.60;;;9.40;99.90;;;;;;5017263;28;20113;-65
2021/10/31 04:16:51;;;;;;;191.15;56.00;;;9.40;99.90;;;;;;5021271;28;20037;-65
2021/10/31 04:19:16;;;;;;;162.90;55.42;;;9.50;99.90;;;;;;5018513;28;20448;-65
2021/10/31 04:21:42;;;;;;;172.43;53.28;;;9.50;99.90;;;;;;5018054;28;20039;-65
2021/10/31 04:24:08;;;;;;;188.18;56.75;;;9.60;99.90;;;;;;5014639;28;20052;-65
2021/10/31 04:26:33;;;;;;;236.10;60.05;;;9.60;99.90;;;;;;5005500;28;20110;-65
2021/10/31 04:28:59;;;;;;;191.70;57.03;;;9.60;99.90;;;;;;5006904;28;20140;-65
2021/10/31 04:31:25;;;;;;;180.88;55.30;;;9.70;99.90;;;;;;5023675;28;20127;-65
2021/10/31 04:33:50;;;;;;;158.27;53.15;;;9.70;99.90;;;;;;5026132;28;20072;-65
2021/10/31 04:36:18;;;;;;;265.00;64.00;;;9.70;99.90;;;;;;5020564;28;20033;-65
2021/10/31 04:38:45;;;;;;;205.55;57.03;;;9.80;99.90;;;;;;5007533;28;20449;-65
2021/10/31 04:41:11;;;;;;;123.53;48.72;;;9.80;99.90;;;;;;5023802;28;20096;-65
2021/10/31 04:43:39;;;;;;;183.25;55.33;;;9.80;99.90;;;;;;5022999;28;20441;-65
2021/10/31 04:46:04;;;;;;;121.13;46.38;;;9.90;99.90;;;;;;5020169;28;20474;-65
2021/10/31 04:48:30;;;;;;;137.30;48.78;;;9.80;99.90;;;;;;5028024;28;20113;-65
2021/10/31 04:50:56;;;;;;;137.20;49.72;;;9.90;99.90;;;;;;5003895;28;20048;-65
2021/10/31 04:53:22;;;;;;;115.05;46.67;;;9.90;99.90;;;;;;5027427;28;20060;-65
2021/10/31 04:55:47;;;;;;;109.78;44.83;;;10.00;99.90;;;;;;5003495;28;20061;-65
2021/10/31 04:58:13;;;;;;;118.50;45.25;;;10.00;99.90;;;;;;5024057;28;20044;-65
2021/10/31 05:00:39;;;;;;;193.93;51.90;;;10.00;99.90;;;;;;5022898;28;25319;-65
2021/10/31 05:03:05;;;;;;;168.27;49.05;;;10.00;99.90;;;;;;5027034;28;20060;-65
2021/10/31 05:05:32;;;;;;;101.32;40.85;;;9.90;99.90;;;;;;5024984;28;20144;-65
2021/10/31 05:08:01;;;;;;;118.85;43.20;;;10.00;99.90;;;;;;5020237;28;20045;-65
2021/10/31 05:10:27;;;;;;;115.63;43.97;;;10.00;99.90;;;;;;5028578;28;20041;-65
2021/10/31 05:12:53;;;;;;;87.93;39.42;;;10.00;99.90;;;;;;5024019;28;20551;-64
2021/10/31 05:15:19;;;;;;;104.65;40.90;;;10.00;99.90;;;;;;5028707;28;20164;-64
2021/10/31 05:17:45;;;;;;;235.88;52.63;;;9.90;99.90;;;;;;5017552;28;20068;-65
2021/10/31 05:20:12;;;;;;;138.60;45.42;;;9.90;99.90;;;;;;5025461;28;20482;-65
2021/10/31 05:22:39;;;;;;;115.35;42.83;;;9.90;99.90;;;;;;5007667;28;20049;-65
2021/10/31 05:25:06;;;;;;;127.07;44.20;;;10.00;99.90;;;;;;5004212;28;20506;-65
2021/10/31 05:27:33;;;;;;;98.57;41.90;;;10.00;99.90;;;;;;5000091;28;20115;-65
2021/10/31 05:29:58;;;;;;;129.45;44.22;;;10.00;99.90;;;;;;5005598;28;20049;-65
2021/10/31 05:32:31;;;;;;;104.70;40.72;;;10.00;99.90;;;;;;5024494;28;20053;-64
2021/10/31 05:34:56;;;;;;;118.70;43.47;;;10.00;99.90;;;;;;5026184;28;20042;-65
2021/10/31 05:37:22;;;;;;;80.93;38.20;;;10.00;99.90;;;;;;5020935;28;20092;-65
2021/10/31 05:39:48;;;;;;;64.97;36.00;;;10.10;99.90;;;;;;5026405;28;20076;-65
2021/10/31 05:42:14;;;;;;;90.57;38.00;;;10.00;99.90;;;;;;5022613;28;20045;-65
2021/10/31 05:44:39;;;;;;;93.13;40.20;;;10.10;99.90;;;;;;5004561;28;20037;-65
2021/10/31 05:47:05;;;;;;;86.60;38.30;;;10.10;99.90;;;;;;5023345;28;20156;-65
2021/10/31 05:49:32;;;;;;;77.72;38.13;;;10.00;99.90;;;;;;5026902;28;20053;-65
2021/10/31 05:51:58;;;;;;;75.63;36.60;;;10.10;99.90;;;;;;5019083;28;20061;-65
2021/10/31 05:54:23;;;;;;;80.63;38.85;;;10.10;99.90;;;;;;5019658;28;20037;-64
2021/10/31 05:56:49;;;;;;;73.13;37.85;;;10.10;99.90;;;;;;5025790;28;20626;-64
2021/10/31 05:59:15;;;;;;;78.75;37.70;;;10.10;99.90;;;;;;5020902;28;20042;-64
2021/10/31 06:01:40;;;;;;;85.13;39.03;;;10.10;99.90;;;;;;5021748;28;20564;-64
2021/10/31 06:04:06;;;;;;;71.63;36.90;;;10.20;99.90;;;;;;5022605;28;20030;-64
2021/10/31 06:06:33;;;;;;;56.88;35.50;;;10.10;99.90;;;;;;5027651;28;20042;-65
2021/10/31 06:08:59;;;;;;;61.13;34.05;;;10.20;99.90;;;;;;5018954;28;20049;-65
2021/10/31 06:11:25;;;;;;;51.72;31.33;;;10.10;99.90;;;;;;5027469;28;20090;-65
2021/10/31 06:13:51;;;;;;;55.15;33.75;;;10.20;99.90;;;;;;5022115;28;20180;-64
2021/10/31 06:16:17;;;;;;;73.55;36.67;;;10.10;99.90;;;;;;5023721;28;20295;-64
2021/10/31 06:18:42;;;;;;;77.72;36.63;;;10.10;99.90;;;;;;5016103;28;20033;-64
2021/10/31 06:21:08;;;;;;;51.20;31.50;;;10.10;99.90;;;;;;5029312;28;20077;-64
2021/10/31 06:23:35;;;;;;;86.32;39.08;;;10.10;99.90;;;;;;5012949;28;20037;-65
2021/10/31 06:26:02;;;;;;;55.85;33.47;;;10.10;99.90;;;;;;5018161;28;20040;-64
2021/10/31 06:28:28;;;;;;;60.90;36.22;;;10.10;99.90;;;;;;5023376;28;20099;-64
2021/10/31 06:30:53;;;;;;;66.45;36.58;;;10.10;99.90;;;;;;5018534;28;20069;-64
2021/10/31 06:33:19;;;;;;;62.53;35.88;;;10.20;99.90;;;;;;5021408;28;20056;-64
2021/10/31 06:35:45;;;;;;;51.60;32.20;;;10.20;99.90;;;;;;5016513;28;20075;-64
2021/10/31 06:38:11;;;;;;;66.20;35.25;;;10.20;99.90;;;;;;5019360;28;20045;-64
2021/10/31 06:40:37;;;;;;;55.33;34.10;;;10.20;99.90;;;;;;5014097;28;20037;-64
2021/10/31 06:43:02;;;;;;;68.65;36.70;;;10.20;99.90;;;;;;5002480;28;20044;-64
2021/10/31 06:45:28;;;;;;;53.35;32.72;;;10.20;99.90;;;;;;5016697;28;20068;-65
2021/10/31 06:47:54;;;;;;;70.28;34.40;;;10.20;99.90;;;;;;5020783;28;20045;-64
2021/10/31 06:50:19;;;;;;;55.03;32.50;;;10.20;99.90;;;;;;5016893;28;20040;-64
2021/10/31 06:52:49;;;;;;;58.67;31.65;;;10.20;99.90;;;;;;5017203;28;20627;-64
2021/10/31 06:55:15;;;;;;;59.47;30.98;;;10.20;99.90;;;;;;5016108;28;20052;-64
2021/10/31 06:57:41;;;;;;;57.53;31.38;;;10.20;99.90;;;;;;5022100;28;20204;-64
2021/10/31 07:00:08;;;;;;;45.67;30.42;;;10.20;99.90;;;;;;5013039;28;20443;-64
2021/10/31 07:02:34;;;;;;;66.30;33.42;;;10.20;99.90;;;;;;5023653;28;20037;-64
2021/10/31 07:05:00;;;;;;;56.50;31.60;;;10.30;99.90;;;;;;5027275;28;20091;-64
2021/10/31 07:07:26;;;;;;;43.67;29.30;;;10.20;99.90;;;;;;5017025;28;20029;-64
2021/10/31 07:09:51;;;;;;;57.95;31.60;;;10.20;99.90;;;;;;5018004;28;20390;-64
2021/10/31 07:12:17;;;;;;;44.80;30.13;;;10.30;99.90;;;;;;5013811;28;20405;-64
2021/10/31 07:14:43;;;;;;;52.97;31.65;;;10.30;99.90;;;;;;5020195;28;20084;-64
2021/10/31 07:17:09;;;;;;;44.95;29.13;;;10.20;99.90;;;;;;5014606;28;20034;-64
2021/10/31 07:19:34;;;;;;;44.90;29.25;;;10.30;99.90;;;;;;5027297;28;20518;-64
2021/10/31 07:22:00;;;;;;;52.50;31.05;;;10.30;99.90;;;;;;5014738;28;20047;-64
2021/10/31 07:24:26;;;;;;;50.20;30.27;;;10.30;99.90;;;;;;5018226;28;20038;-64
2021/10/31 07:26:52;;;;;;;47.92;30.17;;;10.30;99.90;;;;;;5011844;28;20042;-64
2021/10/31 07:29:17;;;;;;;41.05;27.52;;;10.30;99.90;;;;;;5021999;28;20048;-64
2021/10/31 07:31:45;;;;;;;39.45;28.13;;;10.30;99.90;;;;;;5020291;28;20084;-64
2021/10/31 07:34:12;;;;;;;51.33;31.48;;;10.40;99.90;;;;;;5025988;28;20041;-64
2021/10/31 07:36:39;;;;;;;39.42;28.40;;;10.40;99.90;;;;;;5018431;28;20045;-64
2021/10/31 07:39:05;;;;;;;43.22;29.40;;;10.40;99.90;;;;;;5024647;28;20103;-64
2021/10/31 07:41:31;;;;;;;32.47;25.08;;;10.40;99.90;;;;;;5022472;28;20040;-64
2021/10/31 07:43:56;;;;;;;30.48;24.65;;;10.40;99.90;;;;;;5020583;28;20038;-64
2021/10/31 07:46:23;;;;;;;37.90;27.00;;;10.50;99.90;;;;;;5023719;28;20494;-64
2021/10/31 07:48:49;;;;;;;32.97;24.67;;;10.50;99.90;;;;;;5003119;28;20040;-64
2021/10/31 07:51:16;;;;;;;38.78;26.30;;;10.50;99.90;;;;;;5010086;28;20049;-64
2021/10/31 07:53:42;;;;;;;32.08;24.77;;;10.50;99.90;;;;;;5020196;28;20048;-64
2021/10/31 07:56:13;;;;;;;33.58;23.27;;;10.60;99.90;;;;;;5026829;28;20448;-64
2021/10/31 07:58:42;;;;;;;31.52;23.75;;;10.60;99.90;;;;;;5016991;28;20094;-64
2021/10/31 08:01:12;;;;;;;32.92;24.27;;;10.50;99.90;;;;;;5026884;28;20037;-64
2021/10/31 08:03:39;;;;;;;27.67;22.50;;;10.60;99.90;;;;;;5020722;28;20319;-64
2021/10/31 08:06:05;;;;;;;29.75;21.45;;;10.70;99.90;;;;;;5029067;28;20038;-64
2021/10/31 08:08:31;;;;;;;33.67;24.00;;;10.70;99.90;;;;;;5007215;28;20076;-64
2021/10/31 08:10:57;;;;;;;27.85;21.60;;;10.80;99.90;;;;;;5029738;28;20510;-64
2021/10/31 08:13:25;;;;;;;30.65;23.45;;;10.80;99.90;;;;;;5023241;28;20100;-64
2021/10/31 08:15:53;;;;;;;25.58;21.35;;;10.90;99.90;;;;;;5013815;28;20033;-64
2021/10/31 08:18:19;;;;;;;25.15;21.50;;;11.00;99.90;;;;;;5025551;28;20052;-64
2021/10/31 08:20:45;;;;;;;30.13;21.63;;;11.10;99.90;;;;;;5026939;28;20033;-64
2021/10/31 08:23:14;;;;;;;28.83;21.17;;;11.20;99.90;;;;;;5023979;28;20041;-64
2021/10/31 08:25:40;;;;;;;23.73;20.15;;;11.20;99.90;;;;;;5028448;28;20484;-64
2021/10/31 08:28:08;;;;;;;26.35;20.92;;;11.30;99.90;;;;;;5031743;28;20033;-64
2021/10/31 08:30:35;;;;;;;29.85;21.80;;;11.30;99.90;;;;;;5020483;28;20037;-64
2021/10/31 08:33:18;;;;;;;25.48;20.23;;;11.30;99.90;;;;;;5027839;28;20053;-64
2021/10/31 08:35:44;;;;;;;21.23;17.63;;;11.30;99.90;;;;;;5023482;28;20037;-64
2021/10/31 08:38:10;;;;;;;24.98;19.40;;;11.40;99.90;;;;;;5032838;28;20060;-65
2021/10/31 08:40:37;;;;;;;19.42;17.35;;;11.40;99.90;;;;;;5023382;28;20037;-65
2021/10/31 08:43:03;;;;;;;21.40;18.10;;;11.40;99.90;;;;;;5027863;28;20052;-64
2021/10/31 08:45:29;;;;;;;18.08;16.17;;;11.50;99.90;;;;;;5006353;28;20049;-64
2021/10/31 08:47:54;;;;;;;20.75;17.45;;;11.70;99.90;;;;;;5011866;28;20045;-64
2021/10/31 08:50:20;;;;;;;17.70;15.70;;;12.10;99.90;;;;;;5018406;28;20038;-64
2021/10/31 08:52:46;;;;;;;26.48;17.15;;;12.20;99.90;;;;;;5026937;28;20042;-64
2021/10/31 08:55:12;;;;;;;15.90;14.35;;;12.60;99.90;;;;;;5025597;28;20493;-64
2021/10/31 08:57:39;;;;;;;15.75;13.10;;;13.10;99.90;;;;;;5029940;28;20037;-64
2021/10/31 09:00:06;;;;;;;15.38;13.75;;;13.40;99.90;;;;;;5019918;28;20034;-65
2021/10/31 09:02:31;;;;;;;16.00;14.43;;;13.80;99.90;;;;;;5026678;28;20052;-65
2021/10/31 09:04:57;;;;;;;15.80;13.02;;;14.10;99.90;;;;;;5025790;28;20033;-65
2021/10/31 09:07:23;;;;;;;15.30;12.70;;;14.40;99.90;;;;;;5026626;28;20041;-65
2021/10/31 09:09:49;;;;;;;14.43;12.63;;;14.70;99.90;;;;;;5026072;28;20060;-65
2021/10/31 09:12:16;;;;;;;12.85;11.75;;;14.50;99.90;;;;;;5024763;28;20037;-65
2021/10/31 09:14:41;;;;;;;15.60;11.93;;;14.50;99.90;;;;;;5030102;28;20033;-65
2021/10/31 09:17:08;;;;;;;14.05;12.20;;;14.30;99.90;;;;;;5014456;28;20482;-65
2021/10/31 09:19:34;;;;;;;14.35;11.32;;;14.10;99.90;;;;;;5029494;28;20049;-65
2021/10/31 09:22:00;;;;;;;13.50;11.18;;;14.00;99.90;;;;;;5025412;28;20383;-65
2021/10/31 09:24:27;;;;;;;11.95;10.57;;;13.80;99.90;;;;;;5029617;28;20045;-65
2021/10/31 09:26:53;;;;;;;13.02;11.57;;;13.70;99.90;;;;;;5002893;28;20437;-65
2021/10/31 09:29:19;;;;;;;13.00;11.70;;;13.50;99.90;;;;;;5030149;28;20036;-65
2021/10/31 09:31:45;;;;;;;12.20;10.68;;;13.40;99.90;;;;;;5019607;28;20401;-65
2021/10/31 09:34:11;;;;;;;13.95;10.40;;;13.40;99.90;;;;;;5023575;28;20089;-65
2021/10/31 09:36:36;;;;;;;11.98;10.65;;;13.50;99.90;;;;;;5020676;28;20045;-65
2021/10/31 09:39:07;;;;;;;11.82;10.73;;;13.60;99.90;;;;;;5030105;28;20029;-65
2021/10/31 09:41:33;;;;;;;12.98;10.27;;;14.10;99.90;;;;;;5020382;28;20501;-65
2021/10/31 09:46:44;;;;;;;12.30;9.27;;;14.80;99.90;;;;;;5013791;28;20046;-65
2021/10/31 09:49:12;;;;;;;11.98;9.40;;;15.10;99.90;;;;;;5025295;28;20094;-65
2021/10/31 09:51:40;;;;;;;11.27;9.77;;;15.10;99.90;;;;;;5026206;28;20060;-65
2021/10/31 09:54:07;;;;;;;10.30;9.27;;;15.20;99.90;;;;;;5027109;28;20041;-65
2021/10/31 09:56:36;;;;;;;10.80;9.05;;;15.20;99.90;;;;;;5023821;28;20041;-65
2021/10/31 09:59:03;;;;;;;10.43;8.75;;;15.20;99.90;;;;;;5021882;28;20049;-65
2021/10/31 10:04:36;;;;;;;10.68;8.25;;;14.80;99.90;;;;;;5020026;28;20045;-65
2021/10/31 10:07:04;;;;;;;12.48;8.35;;;14.70;99.90;;;;;;5023761;28;20025;-65
2021/10/31 10:09:31;;;;;;;9.90;8.23;;;14.60;99.90;;;;;;5021461;28;20045;-65
2021/10/31 10:12:00;;;;;;;9.32;8.32;;;14.60;99.90;;;;;;5023483;28;20086;-65
2021/10/31 10:14:28;;;;;;;11.95;8.13;;;14.60;99.90;;;;;;5018907;28;20029;-65
2021/10/31 10:16:58;;;;;;;9.52;8.07;;;14.70;99.90;;;;;;5027400;28;20052;-65
2021/10/31 10:19:31;;;;;;;10.50;7.38;;;14.70;99.90;;;;;;5022363;28;20091;-65
2021/10/31 10:22:21;;;;;;;7.80;7.07;;;14.80;99.90;;;;;;5024052;28;20434;-65
2021/10/31 10:25:07;;;;;;;8.00;7.20;;;15.10;99.90;;;;;;5010072;28;20136;-65
2021/10/31 10:27:46;;;;;;;8.70;6.95;;;15.10;99.90;;;;;;5021599;28;20057;-65
2021/10/31 10:30:19;;;;;;;10.07;7.95;;;14.90;99.90;;;;;;5018526;28;20108;-65
2021/10/31 10:32:55;;;;;;;9.27;7.85;;;14.70;99.90;;;;;;5029044;28;20057;-65
2021/10/31 10:35:27;;;;;;;8.50;6.70;;;14.60;99.90;;;;;;5003773;28;20045;-65
2021/10/31 10:37:53;;;;;;;12.95;7.20;;;14.50;99.90;;;;;;5022008;28;20034;-65
2021/10/31 10:40:24;;;;;;;10.77;7.30;;;14.40;99.90;;;;;;5023356;28;20037;-65
2021/10/31 10:42:53;;;;;;;9.05;7.82;;;14.40;99.90;;;;;;5028288;28;20046;-65
2021/10/31 10:45:22;;;;;;;9.57;7.63;;;14.50;99.90;;;;;;5020907;28;20084;-65
2021/10/31 10:47:53;;;;;;;9.48;6.45;;;14.40;99.90;;;;;;5023384;28;20049;-65
2021/10/31 10:50:21;;;;;;;8.38;6.47;;;14.40;99.90;;;;;;5025714;28;20111;-66
2021/10/31 10:52:48;;;;;;;8.82;6.70;;;14.40;99.90;;;;;;5024720;28;20048;-65
2021/10/31 10:55:23;;;;;;;7.00;6.30;;;14.50;99.90;;;;;;5016534;28;20045;-65
2021/10/31 10:57:54;;;;;;;9.68;6.95;;;14.70;99.90;;;;;;5024843;28;20048;-65
2021/10/31 11:00:23;;;;;;;8.77;7.32;;;14.90;99.90;;;;;;5022774;28;20376;-65
2021/10/31 11:03:00;;;;;;;8.35;6.90;;;15.00;99.90;;;;;;5026541;28;20052;-65
2021/10/31 11:05:29;;;;;;;8.18;6.70;;;14.90;99.90;;;;;;5019921;28;20046;-65
2021/10/31 11:07:54;;;;;;;8.05;5.90;;;14.90;99.90;;;;;;5024556;28;20057;-65
2021/10/31 11:10:24;;;;;;;9.20;6.10;;;14.70;99.90;;;;;;5024033;28;20045;-65
2021/10/31 11:12:57;;;;;;;7.43;5.88;;;14.70;99.90;;;;;;5024548;28;20397;-65
2021/10/31 11:15:26;;;;;;;7.20;5.07;;;14.60;99.90;;;;;;5016470;28;20033;-65
2021/10/31 11:17:55;;;;;;;8.10;5.13;;;14.50;99.90;;;;;;5024058;28;20042;-65
2021/10/31 11:20:23;;;;;;;6.07;4.78;;;14.50;99.90;;;;;;5020611;28;20033;-65
2021/10/31 11:22:54;;;;;;;8.50;4.72;;;14.60;99.90;;;;;;5006199;28;20065;-65
2021/10/31 11:25:23;;;;;;;7.03;5.70;;;14.50;99.90;;;;;;5019451;28;20041;-65
2021/10/31 11:27:50;;;;;;;7.88;4.47;;;14.50;99.90;;;;;;5009331;28;20050;-65
2021/10/31 11:30:18;;;;;;;5.32;4.60;;;14.50;99.90;;;;;;5025695;28;20490;-65
2021/10/31 11:32:45;;;;;;;5.93;4.75;;;14.60;99.90;;;;;;5016429;28;20400;-65
2021/10/31 11:35:14;;;;;;;7.53;4.35;;;14.60;99.90;;;;;;5022367;28;20320;-65
2021/10/31 11:37:45;;;;;;;6.38;4.20;;;14.60;99.90;;;;;;5017423;28;20034;-65
2021/10/31 11:40:13;;;;;;;6.20;3.97;;;14.60;99.90;;;;;;5008166;28;20053;-65
2021/10/31 11:42:45;;;;;;;5.50;4.07;;;14.60;99.90;;;;;;5015079;28;20049;-65
2021/10/31 11:45:15;;;;;;;6.80;4.85;;;14.60;99.90;;;;;;5023610;28;20042;-65
2021/10/31 11:47:43;;;;;;;7.03;4.82;;;14.60;99.90;;;;;;4994443;28;20050;-65
2021/10/31 11:50:12;;;;;;;4.78;4.10;;;14.60;99.90;;;;;;5025419;28;20048;-65
2021/10/31 11:52:50;;;;;;;5.93;4.18;;;14.60;99.90;;;;;;5018773;28;20505;-65
2021/10/31 11:55:25;;;;;;;6.68;4.78;;;14.60;99.90;;;;;;5024013;28;20037;-64
2021/10/31 11:58:19;;;;;;;6.72;4.13;;;14.50;99.90;;;;;;5017947;28;20034;-64
2021/10/31 12:00:53;;;;;;;5.97;4.00;;;14.50;99.90;;;;;;5023413;28;20038;-64
2021/10/31 12:03:41;;;;;;;6.15;4.13;;;14.40;99.90;;;;;;5014486;28;20045;-64
2021/10/31 12:06:15;;;;;;;5.60;4.55;;;14.40;99.90;;;;;;5024189;28;20128;-65
2021/10/31 12:08:55;;;;;;;5.82;4.30;;;14.30;99.90;;;;;;5022742;28;20108;-64
2021/10/31 12:11:32;;;;;;;4.95;4.00;;;14.30;99.90;;;;;;5005622;28;20037;-65
2021/10/31 12:14:03;;;;;;;7.22;4.50;;;14.20;99.90;;;;;;5016895;28;20529;-65
2021/10/31 12:16:49;;;;;;;5.65;4.30;;;14.30;99.90;;;;;;5024734;28;20030;-65
2021/10/31 12:19:15;;;;;;;7.80;4.05;;;14.30;99.90;;;;;;5020833;28;20037;-65
2021/10/31 12:21:41;;;;;;;7.53;4.35;;;14.20;99.90;;;;;;5008084;28;20053;-65
2021/10/31 12:24:19;;;;;;;5.57;4.00;;;14.20;99.90;;;;;;5014267;28;20144;-65
2021/10/31 12:26:50;;;;;;;5.80;3.45;;;14.30;99.90;;;;;;5020013;28;20478;-65
2021/10/31 12:29:28;;;;;;;5.72;3.92;;;14.20;99.90;;;;;;5021512;28;20501;-65
2021/10/31 12:32:07;;;;;;;6.38;3.83;;;14.20;99.90;;;;;;5022284;28;20064;-65
2021/10/31 12:34:44;;;;;;;4.50;3.63;;;14.20;99.90;;;;;;5017828;28;20064;-65
2021/10/31 12:37:22;;;;;;;4.60;3.30;;;14.10;99.90;;;;;;5009613;28;20049;-65
2021/10/31 12:39:52;;;;;;;5.00;3.10;;;14.00;99.90;;;;;;5017815;28;20048;-65
2021/10/31 12:42:29;;;;;;;5.63;3.22;;;14.00;99.90;;;;;;5022941;28;20114;-65
2021/10/31 12:45:00;;;;;;;3.55;3.15;;;14.00;99.90;;;;;;5014119;28;20050;-65
2021/10/31 12:47:41;;;;;;;4.05;2.92;;;13.90;99.90;;;;;;5006446;28;20129;-65
2021/10/31 12:50:08;;;;;;;4.63;2.92;;;13.90;99.90;;;;;;5001843;28;20046;-65